KBEC/BEC METAR and TAF weather

Enter ICAO airport designator
Station Type Date Time Source
KBEC METAR 2018/07/21 03:55 UTC NOAA

KBEC 210355Z AUTO 07006KT 10SM CLR 29/19 A2992 RMK AO2 T02850194


Station Type Date Time Source
KBEC Decoded METAR 2018/07/21 03:55 UTC NOAA

Station name not available
Jul 20, 2018 - 11:55 PM EDT / 2018.07.21 0355 UTC
Wind: from the ENE (070 degrees) at 7 MPH (6 KT):0
Visibility: 10 mile(s):0
Sky conditions: clear
Temperature: 83.3 F (28.5 C)
Dew Point: 66.9 F (19.4 C)
Relative Humidity: 57%
Pressure (altimeter): 29.92 in. Hg (1013 hPa)
ob: KBEC 210355Z AUTO 07006KT 10SM CLR 29/19 A2992 RMK AO2 T02850194
cycle: 4

Station Type Date Time Source
KBEC TAF UTC NOAA

Error!


Example: see airport list